sensor_id;sensor_type;location;lat;lon;timestamp;P1;durP1;ratioP1;P2;durP2;ratioP2
6791;SDS011;3433;48.730;9.108;2022-10-31T00:02:09;6.83;;;3.90;;
6791;SDS011;3433;48.730;9.108;2022-10-31T00:04:36;8.53;;;4.73;;
6791;SDS011;3433;48.730;9.108;2022-10-31T00:07:03;5.23;;;3.93;;
6791;SDS011;3433;48.730;9.108;2022-10-31T00:09:30;8.90;;;3.80;;
6791;SDS011;3433;48.730;9.108;2022-10-31T00:11:57;5.40;;;3.90;;
6791;SDS011;3433;48.730;9.108;2022-10-31T00:14:24;6.17;;;3.53;;
6791;SDS011;3433;48.730;9.108;2022-10-31T00:16:51;6.23;;;3.80;;
6791;SDS011;3433;48.730;9.108;2022-10-31T00:19:19;6.33;;;3.73;;
6791;SDS011;3433;48.730;9.108;2022-10-31T00:21:46;7.57;;;3.50;;
6791;SDS011;3433;48.730;9.108;2022-10-31T00:24:13;5.77;;;3.33;;
6791;SDS011;3433;48.730;9.108;2022-10-31T00:26:40;8.60;;;3.40;;
6791;SDS011;3433;48.730;9.108;2022-10-31T00:29:07;4.10;;;2.83;;
6791;SDS011;3433;48.730;9.108;2022-10-31T00:31:34;7.03;;;3.97;;
6791;SDS011;3433;48.730;9.108;2022-10-31T00:34:01;6.73;;;3.33;;
6791;SDS011;3433;48.730;9.108;2022-10-31T00:36:30;5.93;;;3.47;;
6791;SDS011;3433;48.730;9.108;2022-10-31T00:38:57;10.10;;;3.97;;
6791;SDS011;3433;48.730;9.108;2022-10-31T00:41:26;10.03;;;4.03;;
6791;SDS011;3433;48.730;9.108;2022-10-31T00:43:54;8.53;;;3.17;;
6791;SDS011;3433;48.730;9.108;2022-10-31T00:46:21;3.40;;;2.83;;
6791;SDS011;3433;48.730;9.108;2022-10-31T00:48:48;5.70;;;3.00;;
6791;SDS011;3433;48.730;9.108;2022-10-31T00:51:15;5.67;;;3.03;;
6791;SDS011;3433;48.730;9.108;2022-10-31T00:53:43;5.67;;;3.10;;
6791;SDS011;3433;48.730;9.108;2022-10-31T00:56:10;4.10;;;2.67;;
6791;SDS011;3433;48.730;9.108;2022-10-31T00:58:37;6.77;;;3.90;;
6791;SDS011;3433;48.730;9.108;2022-10-31T01:01:04;11.30;;;3.50;;
6791;SDS011;3433;48.730;9.108;2022-10-31T01:03:32;8.27;;;4.10;;
6791;SDS011;3433;48.730;9.108;2022-10-31T01:06:03;8.20;;;3.67;;
6791;SDS011;3433;48.730;9.108;2022-10-31T01:08:31;11.13;;;3.33;;
6791;SDS011;3433;48.730;9.108;2022-10-31T01:11:05;8.07;;;3.50;;
6791;SDS011;3433;48.730;9.108;2022-10-31T01:13:34;6.93;;;3.57;;
6791;SDS011;3433;48.730;9.108;2022-10-31T01:16:02;9.07;;;3.73;;
6791;SDS011;3433;48.730;9.108;2022-10-31T01:18:31;7.77;;;2.83;;
6791;SDS011;3433;48.730;9.108;2022-10-31T01:20:59;5.90;;;3.70;;
6791;SDS011;3433;48.730;9.108;2022-10-31T01:23:28;5.27;;;3.20;;
6791;SDS011;3433;48.730;9.108;2022-10-31T01:26:02;5.00;;;3.10;;
6791;SDS011;3433;48.730;9.108;2022-10-31T01:28:31;6.10;;;3.77;;
6791;SDS011;3433;48.730;9.108;2022-10-31T01:31:03;6.83;;;4.20;;
6791;SDS011;3433;48.730;9.108;2022-10-31T01:33:31;4.90;;;2.93;;
6791;SDS011;3433;48.730;9.108;2022-10-31T01:35:58;7.60;;;3.50;;
6791;SDS011;3433;48.730;9.108;2022-10-31T01:38:26;6.30;;;3.00;;
6791;SDS011;3433;48.730;9.108;2022-10-31T01:40:53;8.37;;;3.00;;
6791;SDS011;3433;48.730;9.108;2022-10-31T01:43:21;7.83;;;3.20;;
6791;SDS011;3433;48.730;9.108;2022-10-31T01:45:50;6.10;;;2.77;;
6791;SDS011;3433;48.730;9.108;2022-10-31T01:48:21;14.03;;;3.30;;
6791;SDS011;3433;48.730;9.108;2022-10-31T01:50:56;5.57;;;2.90;;
6791;SDS011;3433;48.730;9.108;2022-10-31T01:53:23;7.20;;;3.60;;
6791;SDS011;3433;48.730;9.108;2022-10-31T01:55:50;11.50;;;3.60;;
6791;SDS011;3433;48.730;9.108;2022-10-31T01:58:19;4.97;;;3.00;;
6791;SDS011;3433;48.730;9.108;2022-10-31T02:00:50;6.70;;;3.37;;
6791;SDS011;3433;48.730;9.108;2022-10-31T02:03:21;12.63;;;3.90;;
6791;SDS011;3433;48.730;9.108;2022-10-31T02:05:49;8.27;;;3.73;;
6791;SDS011;3433;48.730;9.108;2022-10-31T02:08:18;4.97;;;3.53;;
6791;SDS011;3433;48.730;9.108;2022-10-31T02:10:49;4.60;;;3.00;;
6791;SDS011;3433;48.730;9.108;2022-10-31T02:13:16;9.80;;;3.23;;
6791;SDS011;3433;48.730;9.108;2022-10-31T02:15:47;4.33;;;2.90;;
6791;SDS011;3433;48.730;9.108;2022-10-31T02:18:16;7.17;;;2.93;;
6791;SDS011;3433;48.730;9.108;2022-10-31T02:20:47;7.80;;;4.20;;
6791;SDS011;3433;48.730;9.108;2022-10-31T02:26:36;6.80;;;3.40;;
6791;SDS011;3433;48.730;9.108;2022-10-31T02:29:23;5.37;;;3.50;;
6791;SDS011;3433;48.730;9.108;2022-10-31T02:32:11;6.97;;;4.03;;
6791;SDS011;3433;48.730;9.108;2022-10-31T02:34:43;7.27;;;3.00;;
6791;SDS011;3433;48.730;9.108;2022-10-31T02:37:19;6.70;;;3.10;;
6791;SDS011;3433;48.730;9.108;2022-10-31T02:39:56;6.77;;;3.77;;
6791;SDS011;3433;48.730;9.108;2022-10-31T02:42:32;4.90;;;3.40;;
6791;SDS011;3433;48.730;9.108;2022-10-31T02:45:06;10.37;;;3.60;;
6791;SDS011;3433;48.730;9.108;2022-10-31T02:47:40;4.47;;;3.07;;
6791;SDS011;3433;48.730;9.108;2022-10-31T02:50:10;8.00;;;3.40;;
6791;SDS011;3433;48.730;9.108;2022-10-31T02:52:40;6.00;;;3.60;;
6791;SDS011;3433;48.730;9.108;2022-10-31T02:55:11;7.67;;;3.90;;
6791;SDS011;3433;48.730;9.108;2022-10-31T02:58:00;8.23;;;4.43;;
6791;SDS011;3433;48.730;9.108;2022-10-31T03:00:30;6.20;;;3.30;;
6791;SDS011;3433;48.730;9.108;2022-10-31T03:03:06;9.20;;;4.10;;
6791;SDS011;3433;48.730;9.108;2022-10-31T03:05:40;8.37;;;3.60;;
6791;SDS011;3433;48.730;9.108;2022-10-31T03:08:20;7.90;;;3.30;;
6791;SDS011;3433;48.730;9.108;2022-10-31T03:10:51;6.90;;;3.97;;
6791;SDS011;3433;48.730;9.108;2022-10-31T03:13:21;10.53;;;3.73;;
6791;SDS011;3433;48.730;9.108;2022-10-31T03:16:00;5.60;;;4.20;;
6791;SDS011;3433;48.730;9.108;2022-10-31T03:18:36;5.90;;;3.73;;
6791;SDS011;3433;48.730;9.108;2022-10-31T03:21:06;6.90;;;3.47;;
6791;SDS011;3433;48.730;9.108;2022-10-31T03:23:37;7.50;;;3.80;;
6791;SDS011;3433;48.730;9.108;2022-10-31T03:26:07;7.90;;;3.63;;
6791;SDS011;3433;48.730;9.108;2022-10-31T03:28:36;8.50;;;3.37;;
6791;SDS011;3433;48.730;9.108;2022-10-31T03:31:06;6.40;;;4.30;;
6791;SDS011;3433;48.730;9.108;2022-10-31T03:33:36;4.80;;;3.50;;
6791;SDS011;3433;48.730;9.108;2022-10-31T03:36:07;7.20;;;4.00;;
6791;SDS011;3433;48.730;9.108;2022-10-31T03:38:36;5.87;;;3.50;;
6791;SDS011;3433;48.730;9.108;2022-10-31T03:41:05;5.17;;;4.10;;
6791;SDS011;3433;48.730;9.108;2022-10-31T03:43:41;7.40;;;4.23;;
6791;SDS011;3433;48.730;9.108;2022-10-31T03:46:12;4.93;;;4.30;;
6791;SDS011;3433;48.730;9.108;2022-10-31T03:48:40;11.57;;;4.13;;
6791;SDS011;3433;48.730;9.108;2022-10-31T03:51:08;8.73;;;4.17;;
6791;SDS011;3433;48.730;9.108;2022-10-31T03:53:41;9.80;;;4.60;;
6791;SDS011;3433;48.730;9.108;2022-10-31T03:56:15;6.83;;;3.93;;
6791;SDS011;3433;48.730;9.108;2022-10-31T03:58:47;6.10;;;4.00;;
6791;SDS011;3433;48.730;9.108;2022-10-31T04:01:21;6.07;;;3.70;;
6791;SDS011;3433;48.730;9.108;2022-10-31T04:03:52;8.47;;;3.90;;
6791;SDS011;3433;48.730;9.108;2022-10-31T04:06:20;10.30;;;4.07;;
6791;SDS011;3433;48.730;9.108;2022-10-31T04:08:51;6.20;;;3.70;;
6791;SDS011;3433;48.730;9.108;2022-10-31T04:11:23;6.27;;;4.10;;
6791;SDS011;3433;48.730;9.108;2022-10-31T04:13:54;9.63;;;4.37;;
6791;SDS011;3433;48.730;9.108;2022-10-31T04:16:23;6.77;;;3.90;;
6791;SDS011;3433;48.730;9.108;2022-10-31T04:18:52;5.03;;;3.93;;
6791;SDS011;3433;48.730;9.108;2022-10-31T04:21:19;7.67;;;4.03;;
6791;SDS011;3433;48.730;9.108;2022-10-31T04:23:52;7.33;;;4.13;;
6791;SDS011;3433;48.730;9.108;2022-10-31T04:26:19;5.83;;;4.10;;
6791;SDS011;3433;48.730;9.108;2022-10-31T04:28:46;7.90;;;3.70;;
6791;SDS011;3433;48.730;9.108;2022-10-31T04:31:13;8.13;;;4.10;;
6791;SDS011;3433;48.730;9.108;2022-10-31T04:33:40;4.90;;;4.33;;
6791;SDS011;3433;48.730;9.108;2022-10-31T04:36:08;8.20;;;4.10;;
6791;SDS011;3433;48.730;9.108;2022-10-31T04:38:36;7.13;;;4.07;;
6791;SDS011;3433;48.730;9.108;2022-10-31T04:41:05;4.37;;;3.73;;
6791;SDS011;3433;48.730;9.108;2022-10-31T04:43:32;6.53;;;3.67;;
6791;SDS011;3433;48.730;9.108;2022-10-31T04:45:59;9.13;;;4.10;;
6791;SDS011;3433;48.730;9.108;2022-10-31T04:48:26;9.07;;;4.13;;
6791;SDS011;3433;48.730;9.108;2022-10-31T04:50:57;6.53;;;4.20;;
6791;SDS011;3433;48.730;9.108;2022-10-31T04:53:26;7.03;;;4.53;;
6791;SDS011;3433;48.730;9.108;2022-10-31T04:55:53;7.30;;;4.40;;
6791;SDS011;3433;48.730;9.108;2022-10-31T04:58:20;6.70;;;4.20;;
6791;SDS011;3433;48.730;9.108;2022-10-31T05:00:50;7.07;;;4.20;;
6791;SDS011;3433;48.730;9.108;2022-10-31T05:03:18;9.73;;;4.53;;
6791;SDS011;3433;48.730;9.108;2022-10-31T05:05:45;6.07;;;3.40;;
6791;SDS011;3433;48.730;9.108;2022-10-31T05:08:12;9.83;;;3.90;;
6791;SDS011;3433;48.730;9.108;2022-10-31T05:10:40;6.17;;;3.87;;
6791;SDS011;3433;48.730;9.108;2022-10-31T05:13:07;5.47;;;4.00;;
6791;SDS011;3433;48.730;9.108;2022-10-31T05:15:34;5.33;;;4.00;;
6791;SDS011;3433;48.730;9.108;2022-10-31T05:18:01;9.70;;;4.20;;
6791;SDS011;3433;48.730;9.108;2022-10-31T05:20:29;6.37;;;3.60;;
6791;SDS011;3433;48.730;9.108;2022-10-31T05:22:57;4.67;;;3.70;;
6791;SDS011;3433;48.730;9.108;2022-10-31T05:25:25;6.50;;;3.90;;
6791;SDS011;3433;48.730;9.108;2022-10-31T05:27:54;5.83;;;3.90;;
6791;SDS011;3433;48.730;9.108;2022-10-31T05:30:22;10.20;;;4.30;;
6791;SDS011;3433;48.730;9.108;2022-10-31T05:32:51;5.40;;;3.50;;
6791;SDS011;3433;48.730;9.108;2022-10-31T05:35:18;7.60;;;4.30;;
6791;SDS011;3433;48.730;9.108;2022-10-31T05:37:48;6.57;;;4.03;;
6791;SDS011;3433;48.730;9.108;2022-10-31T05:40:16;8.87;;;3.70;;
6791;SDS011;3433;48.730;9.108;2022-10-31T05:42:44;4.50;;;3.37;;
6791;SDS011;3433;48.730;9.108;2022-10-31T05:45:13;7.93;;;3.63;;
6791;SDS011;3433;48.730;9.108;2022-10-31T05:47:41;6.83;;;4.07;;
6791;SDS011;3433;48.730;9.108;2022-10-31T05:50:15;6.13;;;4.03;;
6791;SDS011;3433;48.730;9.108;2022-10-31T05:52:42;6.70;;;4.40;;
6791;SDS011;3433;48.730;9.108;2022-10-31T05:55:09;11.27;;;4.30;;
6791;SDS011;3433;48.730;9.108;2022-10-31T05:57:36;7.07;;;4.93;;
6791;SDS011;3433;48.730;9.108;2022-10-31T06:00:03;12.70;;;4.43;;
6791;SDS011;3433;48.730;9.108;2022-10-31T06:02:33;8.63;;;4.27;;
6791;SDS011;3433;48.730;9.108;2022-10-31T06:05:00;8.67;;;4.37;;
6791;SDS011;3433;48.730;9.108;2022-10-31T06:07:27;6.37;;;4.00;;
6791;SDS011;3433;48.730;9.108;2022-10-31T06:09:57;7.03;;;4.20;;
6791;SDS011;3433;48.730;9.108;2022-10-31T06:12:24;8.07;;;4.50;;
6791;SDS011;3433;48.730;9.108;2022-10-31T06:14:51;5.40;;;4.30;;
6791;SDS011;3433;48.730;9.108;2022-10-31T06:17:18;7.23;;;4.37;;
6791;SDS011;3433;48.730;9.108;2022-10-31T06:19:46;7.00;;;4.53;;
6791;SDS011;3433;48.730;9.108;2022-10-31T06:22:13;7.27;;;5.10;;
6791;SDS011;3433;48.730;9.108;2022-10-31T06:24:40;8.93;;;5.20;;
6791;SDS011;3433;48.730;9.108;2022-10-31T06:27:07;6.07;;;5.03;;
6791;SDS011;3433;48.730;9.108;2022-10-31T06:29:34;7.90;;;5.17;;
6791;SDS011;3433;48.730;9.108;2022-10-31T06:32:01;8.30;;;4.57;;
6791;SDS011;3433;48.730;9.108;2022-10-31T06:34:28;7.57;;;5.20;;
6791;SDS011;3433;48.730;9.108;2022-10-31T06:36:56;7.87;;;4.93;;
6791;SDS011;3433;48.730;9.108;2022-10-31T06:39:23;6.80;;;4.30;;
6791;SDS011;3433;48.730;9.108;2022-10-31T06:41:50;6.13;;;4.50;;
6791;SDS011;3433;48.730;9.108;2022-10-31T06:44:17;6.03;;;4.00;;
6791;SDS011;3433;48.730;9.108;2022-10-31T06:46:45;5.83;;;3.90;;
6791;SDS011;3433;48.730;9.108;2022-10-31T06:49:13;6.80;;;4.30;;
6791;SDS011;3433;48.730;9.108;2022-10-31T06:51:40;5.00;;;4.10;;
6791;SDS011;3433;48.730;9.108;2022-10-31T06:54:08;10.50;;;4.73;;
6791;SDS011;3433;48.730;9.108;2022-10-31T06:56:35;10.50;;;4.83;;
6791;SDS011;3433;48.730;9.108;2022-10-31T06:59:03;7.10;;;4.93;;
6791;SDS011;3433;48.730;9.108;2022-10-31T07:01:30;8.80;;;5.40;;
6791;SDS011;3433;48.730;9.108;2022-10-31T07:03:57;10.40;;;4.30;;
6791;SDS011;3433;48.730;9.108;2022-10-31T07:06:23;8.60;;;4.80;;
6791;SDS011;3433;48.730;9.108;2022-10-31T07:08:50;17.27;;;5.00;;
6791;SDS011;3433;48.730;9.108;2022-10-31T07:11:18;8.73;;;4.70;;
6791;SDS011;3433;48.730;9.108;2022-10-31T07:13:45;10.67;;;5.30;;
6791;SDS011;3433;48.730;9.108;2022-10-31T07:16:12;8.77;;;4.53;;
6791;SDS011;3433;48.730;9.108;2022-10-31T07:18:39;7.80;;;5.33;;
6791;SDS011;3433;48.730;9.108;2022-10-31T07:21:06;9.30;;;4.50;;
6791;SDS011;3433;48.730;9.108;2022-10-31T07:23:33;11.63;;;5.57;;
6791;SDS011;3433;48.730;9.108;2022-10-31T07:26:00;13.90;;;5.60;;
6791;SDS011;3433;48.730;9.108;2022-10-31T07:28:28;11.47;;;5.00;;
6791;SDS011;3433;48.730;9.108;2022-10-31T07:30:55;17.50;;;5.93;;
6791;SDS011;3433;48.730;9.108;2022-10-31T07:33:24;14.77;;;6.23;;
6791;SDS011;3433;48.730;9.108;2022-10-31T07:35:52;16.13;;;6.00;;
6791;SDS011;3433;48.730;9.108;2022-10-31T07:38:19;19.40;;;6.50;;
6791;SDS011;3433;48.730;9.108;2022-10-31T07:40:49;23.70;;;6.70;;
6791;SDS011;3433;48.730;9.108;2022-10-31T07:43:17;17.67;;;5.90;;
6791;SDS011;3433;48.730;9.108;2022-10-31T07:45:49;13.87;;;5.53;;
6791;SDS011;3433;48.730;9.108;2022-10-31T07:48:17;15.50;;;5.37;;
6791;SDS011;3433;48.730;9.108;2022-10-31T07:50:44;10.90;;;5.87;;
6791;SDS011;3433;48.730;9.108;2022-10-31T07:53:12;11.70;;;5.83;;
6791;SDS011;3433;48.730;9.108;2022-10-31T07:55:39;15.13;;;6.13;;
6791;SDS011;3433;48.730;9.108;2022-10-31T07:58:07;11.57;;;5.93;;
6791;SDS011;3433;48.730;9.108;2022-10-31T08:00:35;18.23;;;6.57;;
6791;SDS011;3433;48.730;9.108;2022-10-31T08:03:06;15.57;;;7.13;;
6791;SDS011;3433;48.730;9.108;2022-10-31T08:05:34;13.13;;;5.53;;
6791;SDS011;3433;48.730;9.108;2022-10-31T08:08:02;10.20;;;5.40;;
6791;SDS011;3433;48.730;9.108;2022-10-31T08:10:29;12.40;;;7.10;;
6791;SDS011;3433;48.730;9.108;2022-10-31T08:12:57;10.33;;;5.93;;
6791;SDS011;3433;48.730;9.108;2022-10-31T08:15:24;9.63;;;5.60;;
6791;SDS011;3433;48.730;9.108;2022-10-31T08:17:52;10.00;;;5.40;;
6791;SDS011;3433;48.730;9.108;2022-10-31T08:20:20;16.43;;;6.17;;
6791;SDS011;3433;48.730;9.108;2022-10-31T08:22:57;13.93;;;5.60;;
6791;SDS011;3433;48.730;9.108;2022-10-31T08:25:25;11.70;;;5.67;;
6791;SDS011;3433;48.730;9.108;2022-10-31T08:27:53;10.50;;;5.77;;
6791;SDS011;3433;48.730;9.108;2022-10-31T08:30:22;12.77;;;6.70;;
6791;SDS011;3433;48.730;9.108;2022-10-31T08:32:57;13.10;;;6.50;;
6791;SDS011;3433;48.730;9.108;2022-10-31T08:35:26;12.37;;;5.93;;
6791;SDS011;3433;48.730;9.108;2022-10-31T08:37:53;21.07;;;6.60;;
6791;SDS011;3433;48.730;9.108;2022-10-31T08:40:20;19.07;;;7.33;;
6791;SDS011;3433;48.730;9.108;2022-10-31T08:42:47;19.20;;;7.67;;
6791;SDS011;3433;48.730;9.108;2022-10-31T08:45:21;15.40;;;7.37;;
6791;SDS011;3433;48.730;9.108;2022-10-31T08:47:48;16.33;;;6.67;;
6791;SDS011;3433;48.730;9.108;2022-10-31T08:50:15;12.83;;;6.30;;
6791;SDS011;3433;48.730;9.108;2022-10-31T08:52:43;12.93;;;6.60;;
6791;SDS011;3433;48.730;9.108;2022-10-31T08:55:10;9.80;;;6.43;;
6791;SDS011;3433;48.730;9.108;2022-10-31T08:57:37;15.10;;;6.73;;
6791;SDS011;3433;48.730;9.108;2022-10-31T09:00:04;12.23;;;6.77;;
6791;SDS011;3433;48.730;9.108;2022-10-31T09:02:32;11.13;;;6.00;;
6791;SDS011;3433;48.730;9.108;2022-10-31T09:04:59;12.73;;;6.70;;
6791;SDS011;3433;48.730;9.108;2022-10-31T09:07:26;14.10;;;7.10;;
6791;SDS011;3433;48.730;9.108;2022-10-31T09:09:54;11.83;;;6.60;;
6791;SDS011;3433;48.730;9.108;2022-10-31T09:12:21;13.27;;;7.80;;
6791;SDS011;3433;48.730;9.108;2022-10-31T09:14:49;12.20;;;6.87;;
6791;SDS011;3433;48.730;9.108;2022-10-31T09:17:16;13.90;;;6.30;;
6791;SDS011;3433;48.730;9.108;2022-10-31T09:19:43;15.77;;;6.97;;
6791;SDS011;3433;48.730;9.108;2022-10-31T09:22:10;10.17;;;7.00;;
6791;SDS011;3433;48.730;9.108;2022-10-31T09:24:36;11.60;;;6.90;;
6791;SDS011;3433;48.730;9.108;2022-10-31T09:27:05;11.17;;;6.77;;
6791;SDS011;3433;48.730;9.108;2022-10-31T09:29:33;9.87;;;6.60;;
6791;SDS011;3433;48.730;9.108;2022-10-31T09:32:00;11.40;;;6.70;;
6791;SDS011;3433;48.730;9.108;2022-10-31T09:34:27;10.63;;;6.27;;
6791;SDS011;3433;48.730;9.108;2022-10-31T09:36:54;13.80;;;7.87;;
6791;SDS011;3433;48.730;9.108;2022-10-31T09:39:21;13.77;;;9.27;;
6791;SDS011;3433;48.730;9.108;2022-10-31T09:41:52;15.70;;;8.20;;
6791;SDS011;3433;48.730;9.108;2022-10-31T09:44:33;7.80;;;5.50;;
6791;SDS011;3433;48.730;9.108;2022-10-31T09:47:10;6.60;;;4.70;;
6791;SDS011;3433;48.730;9.108;2022-10-31T09:49:55;6.60;;;5.07;;
6791;SDS011;3433;48.730;9.108;2022-10-31T09:52:32;16.00;;;6.50;;
6791;SDS011;3433;48.730;9.108;2022-10-31T09:55:03;13.57;;;7.37;;
6791;SDS011;3433;48.730;9.108;2022-10-31T09:57:35;12.03;;;6.00;;
6791;SDS011;3433;48.730;9.108;2022-10-31T10:00:11;11.90;;;6.90;;
6791;SDS011;3433;48.730;9.108;2022-10-31T10:02:44;8.33;;;5.80;;
6791;SDS011;3433;48.730;9.108;2022-10-31T10:05:14;8.87;;;5.70;;
6791;SDS011;3433;48.730;9.108;2022-10-31T10:07:48;15.77;;;6.70;;
6791;SDS011;3433;48.730;9.108;2022-10-31T10:10:22;13.80;;;5.77;;
6791;SDS011;3433;48.730;9.108;2022-10-31T10:12:59;11.73;;;6.43;;
6791;SDS011;3433;48.730;9.108;2022-10-31T10:15:40;13.17;;;5.77;;
6791;SDS011;3433;48.730;9.108;2022-10-31T10:18:23;9.10;;;6.20;;
6791;SDS011;3433;48.730;9.108;2022-10-31T10:21:12;10.10;;;5.60;;
6791;SDS011;3433;48.730;9.108;2022-10-31T10:23:53;11.30;;;5.80;;
6791;SDS011;3433;48.730;9.108;2022-10-31T10:26:28;8.03;;;5.47;;
6791;SDS011;3433;48.730;9.108;2022-10-31T10:29:01;7.07;;;5.53;;
6791;SDS011;3433;48.730;9.108;2022-10-31T10:31:45;11.20;;;5.90;;
6791;SDS011;3433;48.730;9.108;2022-10-31T10:34:16;8.20;;;4.80;;
6791;SDS011;3433;48.730;9.108;2022-10-31T10:36:48;11.33;;;6.10;;
6791;SDS011;3433;48.730;9.108;2022-10-31T10:39:18;7.00;;;4.73;;
6791;SDS011;3433;48.730;9.108;2022-10-31T10:41:49;11.10;;;5.40;;
6791;SDS011;3433;48.730;9.108;2022-10-31T10:44:31;8.70;;;5.30;;
6791;SDS011;3433;48.730;9.108;2022-10-31T10:47:16;8.43;;;5.03;;
6791;SDS011;3433;48.730;9.108;2022-10-31T10:50:06;8.93;;;5.80;;
6791;SDS011;3433;48.730;9.108;2022-10-31T10:52:39;11.73;;;6.30;;
6791;SDS011;3433;48.730;9.108;2022-10-31T10:55:16;8.80;;;5.90;;
6791;SDS011;3433;48.730;9.108;2022-10-31T10:57:54;12.93;;;5.53;;
6791;SDS011;3433;48.730;9.108;2022-10-31T11:00:24;12.83;;;6.60;;
6791;SDS011;3433;48.730;9.108;2022-10-31T11:02:54;12.33;;;6.30;;
6791;SDS011;3433;48.730;9.108;2022-10-31T11:05:28;12.90;;;6.70;;
6791;SDS011;3433;48.730;9.108;2022-10-31T11:08:04;14.27;;;7.27;;
6791;SDS011;3433;48.730;9.108;2022-10-31T11:10:33;11.27;;;7.03;;
6791;SDS011;3433;48.730;9.108;2022-10-31T11:13:02;13.00;;;6.67;;
6791;SDS011;3433;48.730;9.108;2022-10-31T11:15:34;8.83;;;7.10;;
6791;SDS011;3433;48.730;9.108;2022-10-31T11:18:05;11.17;;;7.07;;
6791;SDS011;3433;48.730;9.108;2022-10-31T11:20:40;10.23;;;6.00;;
6791;SDS011;3433;48.730;9.108;2022-10-31T11:23:18;13.70;;;7.20;;
6791;SDS011;3433;48.730;9.108;2022-10-31T11:25:50;8.60;;;6.70;;
6791;SDS011;3433;48.730;9.108;2022-10-31T11:28:19;14.90;;;7.57;;
6791;SDS011;3433;48.730;9.108;2022-10-31T11:30:46;10.27;;;6.53;;
6791;SDS011;3433;48.730;9.108;2022-10-31T11:33:21;12.23;;;7.23;;
6791;SDS011;3433;48.730;9.108;2022-10-31T11:35:52;10.67;;;7.20;;
6791;SDS011;3433;48.730;9.108;2022-10-31T11:38:21;11.67;;;7.73;;
6791;SDS011;3433;48.730;9.108;2022-10-31T11:40:51;10.13;;;6.73;;
6791;SDS011;3433;48.730;9.108;2022-10-31T11:43:20;10.20;;;7.00;;
6791;SDS011;3433;48.730;9.108;2022-10-31T11:45:48;16.57;;;8.17;;
6791;SDS011;3433;48.730;9.108;2022-10-31T11:48:16;9.70;;;7.27;;
6791;SDS011;3433;48.730;9.108;2022-10-31T11:50:49;8.90;;;6.77;;
6791;SDS011;3433;48.730;9.108;2022-10-31T11:53:18;9.20;;;7.10;;
6791;SDS011;3433;48.730;9.108;2022-10-31T11:55:48;14.60;;;8.70;;
6791;SDS011;3433;48.730;9.108;2022-10-31T11:58:29;13.53;;;7.60;;
6791;SDS011;3433;48.730;9.108;2022-10-31T12:00:56;15.57;;;7.20;;
6791;SDS011;3433;48.730;9.108;2022-10-31T12:03:40;16.60;;;9.47;;
6791;SDS011;3433;48.730;9.108;2022-10-31T12:06:16;9.20;;;7.20;;
6791;SDS011;3433;48.730;9.108;2022-10-31T12:08:46;15.20;;;7.73;;
6791;SDS011;3433;48.730;9.108;2022-10-31T12:11:18;10.50;;;6.93;;
6791;SDS011;3433;48.730;9.108;2022-10-31T12:14:05;10.23;;;7.30;;
6791;SDS011;3433;48.730;9.108;2022-10-31T12:16:45;14.17;;;6.40;;
6791;SDS011;3433;48.730;9.108;2022-10-31T12:19:19;11.60;;;6.00;;
6791;SDS011;3433;48.730;9.108;2022-10-31T12:21:58;12.83;;;6.43;;
6791;SDS011;3433;48.730;9.108;2022-10-31T12:24:37;12.93;;;6.70;;
6791;SDS011;3433;48.730;9.108;2022-10-31T12:27:29;11.30;;;7.13;;
6791;SDS011;3433;48.730;9.108;2022-10-31T12:30:12;12.77;;;7.07;;
6791;SDS011;3433;48.730;9.108;2022-10-31T12:32:49;13.90;;;6.80;;
6791;SDS011;3433;48.730;9.108;2022-10-31T12:35:32;17.30;;;7.17;;
6791;SDS011;3433;48.730;9.108;2022-10-31T12:38:15;7.90;;;5.30;;
6791;SDS011;3433;48.730;9.108;2022-10-31T12:41:01;10.27;;;6.37;;
6791;SDS011;3433;48.730;9.108;2022-10-31T12:43:52;12.50;;;5.57;;
6791;SDS011;3433;48.730;9.108;2022-10-31T12:46:25;10.10;;;5.53;;
6791;SDS011;3433;48.730;9.108;2022-10-31T12:49:06;6.13;;;5.53;;
6791;SDS011;3433;48.730;9.108;2022-10-31T12:51:57;15.67;;;7.00;;
6791;SDS011;3433;48.730;9.108;2022-10-31T12:54:40;9.40;;;6.70;;
6791;SDS011;3433;48.730;9.108;2022-10-31T12:57:20;6.87;;;5.47;;
6791;SDS011;3433;48.730;9.108;2022-10-31T12:59:55;6.37;;;5.50;;
6791;SDS011;3433;48.730;9.108;2022-10-31T13:02:26;12.37;;;6.60;;
6791;SDS011;3433;48.730;9.108;2022-10-31T13:04:56;8.67;;;5.67;;
6791;SDS011;3433;48.730;9.108;2022-10-31T13:07:29;9.63;;;5.20;;
6791;SDS011;3433;48.730;9.108;2022-10-31T13:10:01;9.13;;;6.10;;
6791;SDS011;3433;48.730;9.108;2022-10-31T13:12:32;7.37;;;5.40;;
6791;SDS011;3433;48.730;9.108;2022-10-31T13:15:03;9.03;;;5.00;;
6791;SDS011;3433;48.730;9.108;2022-10-31T13:17:38;8.57;;;4.73;;
6791;SDS011;3433;48.730;9.108;2022-10-31T13:20:13;8.23;;;5.03;;
6791;SDS011;3433;48.730;9.108;2022-10-31T13:22:48;7.83;;;5.70;;
6791;SDS011;3433;48.730;9.108;2022-10-31T13:25:19;8.30;;;5.50;;
6791;SDS011;3433;48.730;9.108;2022-10-31T13:27:51;7.50;;;4.43;;
6791;SDS011;3433;48.730;9.108;2022-10-31T13:30:21;14.37;;;7.23;;
6791;SDS011;3433;48.730;9.108;2022-10-31T13:32:50;12.03;;;5.53;;
6791;SDS011;3433;48.730;9.108;2022-10-31T13:35:21;11.73;;;6.50;;
6791;SDS011;3433;48.730;9.108;2022-10-31T13:37:57;9.83;;;5.80;;
6791;SDS011;3433;48.730;9.108;2022-10-31T13:40:34;10.57;;;6.07;;
6791;SDS011;3433;48.730;9.108;2022-10-31T13:43:12;10.53;;;5.50;;
6791;SDS011;3433;48.730;9.108;2022-10-31T13:45:48;10.17;;;5.70;;
6791;SDS011;3433;48.730;9.108;2022-10-31T13:48:31;10.23;;;6.17;;
6791;SDS011;3433;48.730;9.108;2022-10-31T13:51:02;8.43;;;6.50;;
6791;SDS011;3433;48.730;9.108;2022-10-31T13:53:43;8.50;;;5.93;;
6791;SDS011;3433;48.730;9.108;2022-10-31T13:56:13;10.97;;;6.50;;
6791;SDS011;3433;48.730;9.108;2022-10-31T13:58:56;12.30;;;6.17;;
6791;SDS011;3433;48.730;9.108;2022-10-31T14:01:26;11.40;;;6.27;;
6791;SDS011;3433;48.730;9.108;2022-10-31T14:04:02;13.17;;;7.63;;
6791;SDS011;3433;48.730;9.108;2022-10-31T14:06:34;12.53;;;6.47;;
6791;SDS011;3433;48.730;9.108;2022-10-31T14:09:14;14.40;;;6.77;;
6791;SDS011;3433;48.730;9.108;2022-10-31T14:11:46;9.80;;;6.97;;
6791;SDS011;3433;48.730;9.108;2022-10-31T14:14:14;9.77;;;7.13;;
6791;SDS011;3433;48.730;9.108;2022-10-31T14:16:43;9.73;;;6.40;;
6791;SDS011;3433;48.730;9.108;2022-10-31T14:19:15;8.00;;;6.53;;
6791;SDS011;3433;48.730;9.108;2022-10-31T14:21:45;11.20;;;7.13;;
6791;SDS011;3433;48.730;9.108;2022-10-31T14:24:15;15.63;;;6.93;;
6791;SDS011;3433;48.730;9.108;2022-10-31T14:26:57;12.63;;;6.83;;
6791;SDS011;3433;48.730;9.108;2022-10-31T14:29:26;18.40;;;7.33;;
6791;SDS011;3433;48.730;9.108;2022-10-31T14:31:55;16.07;;;7.50;;
6791;SDS011;3433;48.730;9.108;2022-10-31T14:34:29;14.07;;;7.20;;
6791;SDS011;3433;48.730;9.108;2022-10-31T14:40:27;9.70;;;7.20;;
6791;SDS011;3433;48.730;9.108;2022-10-31T14:43:19;12.90;;;7.40;;
6791;SDS011;3433;48.730;9.108;2022-10-31T14:46:00;15.03;;;8.07;;
6791;SDS011;3433;48.730;9.108;2022-10-31T14:48:38;11.87;;;7.07;;
6791;SDS011;3433;48.730;9.108;2022-10-31T14:51:17;15.70;;;6.87;;
6791;SDS011;3433;48.730;9.108;2022-10-31T14:53:47;16.70;;;7.40;;
6791;SDS011;3433;48.730;9.108;2022-10-31T14:56:19;11.13;;;7.53;;
6791;SDS011;3433;48.730;9.108;2022-10-31T14:58:49;10.30;;;7.47;;
6791;SDS011;3433;48.730;9.108;2022-10-31T15:01:18;12.10;;;6.80;;
6791;SDS011;3433;48.730;9.108;2022-10-31T15:03:49;9.87;;;7.10;;
6791;SDS011;3433;48.730;9.108;2022-10-31T15:06:18;11.83;;;7.80;;
6791;SDS011;3433;48.730;9.108;2022-10-31T15:08:48;12.13;;;8.13;;
6791;SDS011;3433;48.730;9.108;2022-10-31T15:11:17;13.30;;;8.13;;
6791;SDS011;3433;48.730;9.108;2022-10-31T15:13:47;12.50;;;7.53;;
6791;SDS011;3433;48.730;9.108;2022-10-31T15:16:15;14.87;;;7.53;;
6791;SDS011;3433;48.730;9.108;2022-10-31T15:18:49;13.50;;;6.83;;
6791;SDS011;3433;48.730;9.108;2022-10-31T15:21:21;11.00;;;6.03;;
6791;SDS011;3433;48.730;9.108;2022-10-31T15:23:50;11.90;;;6.30;;
6791;SDS011;3433;48.730;9.108;2022-10-31T15:26:21;14.27;;;6.77;;
6791;SDS011;3433;48.730;9.108;2022-10-31T15:28:58;16.17;;;7.20;;
6791;SDS011;3433;48.730;9.108;2022-10-31T15:31:27;8.60;;;6.87;;
6791;SDS011;3433;48.730;9.108;2022-10-31T15:33:54;10.63;;;6.73;;
6791;SDS011;3433;48.730;9.108;2022-10-31T15:36:26;8.67;;;6.10;;
6791;SDS011;3433;48.730;9.108;2022-10-31T15:38:54;11.90;;;6.80;;
6791;SDS011;3433;48.730;9.108;2022-10-31T15:41:26;9.87;;;6.10;;